Terminal Aerodrome Forecast
Issued by NWS Albany, NY

Home | Current Version | Previous Version | Text Only | Print | Product List | Glossary On
Versions: 1 2 3 4 5 6 7 8 9 10 11 12 13 14 15 16 17 18 19 20
000
FTUS41 KALY 021137
TAFALB
TAF
KALB 021137Z 0212/0312 28008KT 5SM -SHSN BR BKN020 OVC035
      TEMPO 0212/0214 28010G20KT P6SM NSW SCT020 OVC035
     FM021400 29013G23KT P6SM SCT025 OVC035
     FM021800 29018G28KT P6SM BKN050
     FM030100 31009KT P6SM SCT050
     FM030700 32003KT P6SM SKC=

USA.gov is the U.S. government's official web portal to all federal, state and local government web resources and services.